Time,TemperatureF,DewpointF,PressureIn,WindDirection,WindDirectionDegrees,WindSpeedMPH,WindSpeedGustMPH,Humidity,HourlyPrecipIn,Conditions,Clouds,dailyrainin,SoftwareType,DateUTC
2013-02-28 00:29:00,36.0,33.6,29.67,SE,142,0.0,0.0,91,0.00,,,0.00,Wunderground v.1.15,2013-02-28 05:29:00,
2013-02-28 00:30:00,35.9,33.8,29.67,SE,143,0.0,0.0,92,0.00,,,0.00,Wunderground v.1.15,2013-02-28 05:30:00,
2013-02-28 00:57:00,36.2,33.8,29.68,SE,142,0.0,1.0,91,0.00,,,0.00,Wunderground v.1.15,2013-02-28 05:57:00,
2013-02-28 01:05:00,36.3,33.6,29.68,NE,53,0.0,1.0,90,0.00,,,0.00,Wunderground v.1.15,2013-02-28 06:05:00,
2013-02-28 01:15:00,36.5,33.0,29.68,East,96,0.0,0.0,87,0.00,,,0.00,Wunderground v.1.15,2013-02-28 06:15:00,
2013-02-28 01:20:00,36.7,32.9,29.68,NW,319,0.0,0.0,86,0.00,,,0.00,Wunderground v.1.15,2013-02-28 06:20:00,
2013-02-28 01:30:00,37.1,32.4,29.68,NNE,20,0.0,0.0,83,0.00,,,0.00,Wunderground v.1.15,2013-02-28 06:30:00,
2013-02-28 01:35:00,37.2,33.1,29.68,NE,53,1.0,1.0,85,0.00,,,0.00,Wunderground v.1.15,2013-02-28 06:35:00,
2013-02-28 01:45:00,37.8,32.5,29.69,WNW,295,1.0,3.0,81,0.00,,,0.00,Wunderground v.1.15,2013-02-28 06:45:00,
2013-02-28 01:55:00,37.8,32.5,29.69,NNE,19,2.0,2.0,81,0.00,,,0.00,Wunderground v.1.15,2013-02-28 06:55:00,
2013-02-28 02:00:00,37.7,32.7,29.69,ESE,118,1.0,1.0,82,0.00,,,0.00,Wunderground v.1.15,2013-02-28 07:00:00,
2013-02-28 02:10:00,37.7,32.1,29.69,NNW,342,1.0,2.0,80,0.00,,,0.00,Wunderground v.1.15,2013-02-28 07:10:00,
2013-02-28 02:15:00,37.7,31.5,29.69,NNW,346,1.0,3.0,78,0.00,,,0.00,Wunderground v.1.15,2013-02-28 07:15:00,
2013-02-28 02:25:00,37.6,30.7,29.68,SSW,198,1.0,1.0,76,0.00,,,0.00,Wunderground v.1.15,2013-02-28 07:25:00,
2013-02-28 02:30:00,37.5,30.0,29.68,NW,307,1.0,3.0,74,0.00,,,0.00,Wunderground v.1.15,2013-02-28 07:30:00,
2013-02-28 02:40:00,37.3,29.1,29.68,SSW,212,2.0,2.0,72,0.00,,,0.00,Wunderground v.1.15,2013-02-28 07:40:00,
2013-02-28 02:45:00,37.2,29.3,29.68,East,92,1.0,2.0,73,0.00,,,0.00,Wunderground v.1.15,2013-02-28 07:45:00,
2013-02-28 02:55:00,36.8,29.0,29.68,South,174,1.0,3.0,73,0.00,,,0.00,Wunderground v.1.15,2013-02-28 07:55:00,
2013-02-28 03:00:00,36.5,29.0,29.68,North,358,1.0,1.0,74,0.00,,,0.00,Wunderground v.1.15,2013-02-28 08:00:00,
2013-02-28 03:10:00,35.9,29.1,29.68,SSE,165,1.0,4.0,76,0.00,,,0.00,Wunderground v.1.15,2013-02-28 08:10:00,
2013-02-28 03:15:00,35.6,28.8,29.68,SSW,212,1.0,4.0,76,0.00,,,0.00,Wunderground v.1.15,2013-02-28 08:15:00,
2013-02-28 03:25:00,35.5,27.7,29.68,South,170,1.0,1.0,73,0.00,,,0.00,Wunderground v.1.15,2013-02-28 08:25:00,
2013-02-28 03:30:00,35.5,28.4,29.68,ENE,68,0.0,0.0,75,0.00,,,0.00,Wunderground v.1.15,2013-02-28 08:30:00,
2013-02-28 03:40:00,35.3,27.5,29.68,West,259,1.0,1.0,73,0.00,,,0.00,Wunderground v.1.15,2013-02-28 08:40:00,
2013-02-28 03:50:00,35.8,27.3,29.67,NE,41,1.0,1.0,71,0.00,,,0.00,Wunderground v.1.15,2013-02-28 08:50:00,
2013-02-28 04:00:00,36.2,27.0,29.68,North,8,2.0,4.0,69,0.00,,,0.00,Wunderground v.1.15,2013-02-28 09:00:00,
2013-02-28 04:10:00,36.5,26.9,29.68,SW,222,2.0,2.0,68,0.00,,,0.00,Wunderground v.1.15,2013-02-28 09:10:00,
2013-02-28 04:20:00,36.5,26.9,29.68,NE,40,2.0,3.0,68,0.00,,,0.00,Wunderground v.1.15,2013-02-28 09:20:00,
2013-02-28 04:30:00,36.5,26.6,29.68,WSW,238,2.0,3.0,67,0.00,,,0.00,Wunderground v.1.15,2013-02-28 09:30:00,
2013-02-28 04:35:00,36.5,26.2,29.68,NW,308,1.0,3.0,66,0.00,,,0.00,Wunderground v.1.15,2013-02-28 09:35:00,
2013-02-28 04:45:00,36.3,26.0,29.68,SE,144,1.0,1.0,66,0.00,,,0.00,Wunderground v.1.15,2013-02-28 09:45:00,
2013-02-28 04:50:00,36.3,26.0,29.68,North,351,1.0,2.0,66,0.00,,,0.00,Wunderground v.1.15,2013-02-28 09:50:00,
2013-02-28 05:00:00,36.2,25.9,29.68,ESE,103,1.0,1.0,66,0.00,,,0.00,Wunderground v.1.15,2013-02-28 10:00:00,
2013-02-28 05:10:00,36.1,26.2,29.68,NE,56,1.0,1.0,67,0.00,,,0.00,Wunderground v.1.15,2013-02-28 10:10:00,
2013-02-28 05:15:00,36.0,26.1,29.68,SW,218,0.0,1.0,67,0.00,,,0.00,Wunderground v.1.15,2013-02-28 10:15:00,
2013-02-28 05:25:00,35.8,25.9,29.68,East,85,0.0,1.0,67,0.00,,,0.00,Wunderground v.1.15,2013-02-28 10:25:00,
2013-02-28 05:30:00,35.8,26.3,29.68,NNW,333,0.0,1.0,68,0.00,,,0.00,Wunderground v.1.15,2013-02-28 10:30:00,
2013-02-28 05:40:00,35.4,26.2,29.68,ENE,70,0.0,0.0,69,0.00,,,0.00,Wunderground v.1.15,2013-02-28 10:40:00,
2013-02-28 05:45:00,35.4,26.9,29.68,South,175,0.0,0.0,71,0.00,,,0.00,Wunderground v.1.15,2013-02-28 10:45:00,
2013-02-28 05:55:00,35.0,26.9,29.68,SE,138,0.0,0.0,72,0.00,,,0.00,Wunderground v.1.15,2013-02-28 10:55:00,
2013-02-28 06:00:00,34.7,27.3,29.68,SE,139,0.0,0.0,74,0.00,,,0.00,Wunderground v.1.15,2013-02-28 11:00:00,
2013-02-28 06:10:00,34.2,27.4,29.68,WNW,302,0.0,0.0,76,0.00,,,0.00,Wunderground v.1.15,2013-02-28 11:10:00,
2013-02-28 06:15:00,34.0,27.9,29.68,NW,308,0.0,0.0,78,0.00,,,0.00,Wunderground v.1.15,2013-02-28 11:15:00,
2013-02-28 06:25:00,33.5,27.4,29.68,NW,307,0.0,0.0,78,0.00,,,0.00,Wunderground v.1.15,2013-02-28 11:25:00,
2013-02-28 06:35:00,33.2,27.4,29.68,NW,307,0.0,0.0,79,0.00,,,0.00,Wunderground v.1.15,2013-02-28 11:35:00,
2013-02-28 06:40:00,33.1,27.3,29.68,East,87,1.0,1.0,79,0.00,,,0.00,Wunderground v.1.15,2013-02-28 11:40:00,
2013-02-28 06:45:00,33.2,27.4,29.68,East,91,1.0,1.0,79,0.00,,,0.00,Wunderground v.1.15,2013-02-28 11:45:00,
2013-02-28 06:55:00,33.1,27.6,29.68,ENE,75,0.0,0.0,80,0.00,,,0.00,Wunderground v.1.15,2013-02-28 11:55:00,
2013-02-28 07:00:00,33.0,27.5,29.68,ENE,75,0.0,0.0,80,0.00,,,0.00,Wunderground v.1.15,2013-02-28 12:00:00,
2013-02-28 07:10:00,32.5,27.6,29.68,ENE,75,0.0,0.0,82,0.00,,,0.00,Wunderground v.1.15,2013-02-28 12:10:00,
2013-02-28 07:20:00,32.3,27.7,29.68,ENE,75,0.0,0.0,83,0.00,,,0.00,Wunderground v.1.15,2013-02-28 12:20:00,
2013-02-28 07:25:00,32.3,27.7,29.68,ENE,75,0.0,0.0,83,0.00,,,0.00,Wunderground v.1.15,2013-02-28 12:25:00,
2013-02-28 07:30:00,32.3,27.7,29.68,ENE,75,0.0,0.0,83,0.00,,,0.00,Wunderground v.1.15,2013-02-28 12:30:00,
2013-02-28 07:35:00,32.3,27.7,29.69,ENE,75,0.0,0.0,83,0.00,,,0.00,Wunderground v.1.15,2013-02-28 12:35:00,
2013-02-28 07:45:00,32.4,27.5,29.69,ENE,75,0.0,0.0,82,0.00,,,0.00,Wunderground v.1.15,2013-02-28 12:45:00,
2013-02-28 07:55:00,32.8,28.2,29.69,West,259,0.0,0.0,83,0.00,,,0.00,Wunderground v.1.15,2013-02-28 12:55:00,
2013-02-28 08:00:00,33.0,28.1,29.69,West,259,0.0,0.0,82,0.00,,,0.00,Wunderground v.1.15,2013-02-28 13:00:00,
2013-02-28 08:10:00,33.7,27.3,29.69,WSW,238,0.0,0.0,77,0.00,,,0.00,Wunderground v.1.15,2013-02-28 13:10:00,
2013-02-28 08:15:00,34.2,29.0,29.69,WSW,238,0.0,0.0,81,0.00,,,0.00,Wunderground v.1.15,2013-02-28 13:15:00,
2013-02-28 08:25:00,34.9,29.0,29.69,WSW,238,0.0,0.0,79,0.00,,,0.00,Wunderground v.1.15,2013-02-28 13:25:00,
2013-02-28 08:35:00,35.7,28.2,29.69,South,169,0.0,0.0,74,0.00,,,0.00,Wunderground v.1.15,2013-02-28 13:35:00,
2013-02-28 08:40:00,36.0,27.8,29.69,ENE,66,1.0,1.0,72,0.00,,,0.00,Wunderground v.1.15,2013-02-28 13:40:00,
2013-02-28 08:50:00,36.4,27.9,29.70,NE,48,1.0,2.0,71,0.00,,,0.00,Wunderground v.1.15,2013-02-28 13:50:00,
2013-02-28 08:55:00,36.5,28.0,29.69,East,86,2.0,2.0,71,0.00,,,0.00,Wunderground v.1.15,2013-02-28 13:55:00,
2013-02-28 09:05:00,36.6,28.1,29.69,ENE,68,2.0,3.0,71,0.00,,,0.00,Wunderground v.1.15,2013-02-28 14:05:00,
2013-02-28 09:10:00,36.7,28.2,29.69,SSE,165,2.0,2.0,71,0.00,,,0.00,Wunderground v.1.15,2013-02-28 14:10:00,
2013-02-28 09:20:00,36.7,28.2,29.69,SSE,162,2.0,2.0,71,0.00,,,0.00,Wunderground v.1.15,2013-02-28 14:20:00,
2013-02-28 09:25:00,36.7,28.2,29.69,SSE,152,2.0,2.0,71,0.00,,,0.00,Wunderground v.1.15,2013-02-28 14:25:00,
2013-02-28 09:35:00,36.9,28.0,29.69,WSW,252,2.0,2.0,70,0.00,,,0.00,Wunderground v.1.15,2013-02-28 14:35:00,
2013-02-28 09:40:00,36.9,28.0,29.69,ESE,105,2.0,2.0,70,0.00,,,0.00,Wunderground v.1.15,2013-02-28 14:40:00,
2013-02-28 09:50:00,37.0,27.8,29.69,East,94,2.0,3.0,69,0.00,,,0.00,Wunderground v.1.15,2013-02-28 14:50:00,
2013-02-28 09:55:00,37.0,28.1,29.69,NW,321,2.0,3.0,70,0.00,,,0.00,Wunderground v.1.15,2013-02-28 14:55:00,
2013-02-28 10:05:00,36.8,27.9,29.69,SSE,149,1.0,2.0,70,0.00,,,0.00,Wunderground v.1.15,2013-02-28 15:05:00,
2013-02-28 10:10:00,36.8,27.9,29.69,NNW,338,2.0,2.0,70,0.00,,,0.00,Wunderground v.1.15,2013-02-28 15:10:00,
2013-02-28 10:20:00,36.7,28.2,29.69,SE,127,2.0,2.0,71,0.00,,,0.00,Wunderground v.1.15,2013-02-28 15:20:00,
2013-02-28 10:25:00,36.8,28.6,29.69,SW,217,2.0,2.0,72,0.00,,,0.00,Wunderground v.1.15,2013-02-28 15:25:00,
2013-02-28 10:35:00,36.9,28.7,29.69,ESE,120,1.0,2.0,72,0.00,,,0.00,Wunderground v.1.15,2013-02-28 15:35:00,
2013-02-28 10:40:00,36.9,29.1,29.69,SE,136,2.0,3.0,73,0.00,,,0.00,Wunderground v.1.15,2013-02-28 15:40:00,
2013-02-28 10:50:00,36.9,29.4,29.69,East,100,3.0,5.0,74,0.00,,,0.00,Wunderground v.1.15,2013-02-28 15:50:00,
2013-02-28 10:55:00,37.0,29.5,29.69,SE,142,3.0,5.0,74,0.00,,,0.00,Wunderground v.1.15,2013-02-28 15:55:00,
2013-02-28 11:05:00,37.3,29.1,29.69,SE,143,2.0,2.0,72,0.00,,,0.00,Wunderground v.1.15,2013-02-28 16:05:00,
2013-02-28 11:15:00,37.3,28.8,29.69,SE,133,2.0,2.0,71,0.00,,,0.00,Wunderground v.1.15,2013-02-28 16:15:00,
2013-02-28 11:20:00,37.5,28.6,29.69,NE,53,2.0,2.0,70,0.00,,,0.00,Wunderground v.1.15,2013-02-28 16:20:00,
2013-02-28 11:25:00,37.7,28.4,29.69,SSW,202,2.0,4.0,69,0.00,,,0.00,Wunderground v.1.15,2013-02-28 16:25:00,
2013-02-28 11:35:00,38.2,28.6,29.69,North,1,2.0,4.0,68,0.00,,,0.00,Wunderground v.1.15,2013-02-28 16:35:00,
2013-02-28 11:45:00,38.6,27.5,29.69,ENE,67,3.0,5.0,64,0.00,,,0.00,Wunderground v.1.15,2013-02-28 16:45:00,
2013-02-28 11:50:00,38.6,26.3,29.69,ESE,122,3.0,3.0,61,0.00,,,0.00,Wunderground v.1.15,2013-02-28 16:50:00,
2013-02-28 12:00:00,38.6,26.7,29.69,SE,139,3.0,3.0,62,0.00,,,0.00,Wunderground v.1.15,2013-02-28 17:00:00,
2013-02-28 12:10:00,38.7,26.4,29.69,NNW,335,3.0,3.0,61,0.00,,,0.00,Wunderground v.1.15,2013-02-28 17:10:00,
2013-02-28 12:15:00,38.7,26.0,29.69,NE,56,4.0,5.0,60,0.00,,,0.00,Wunderground v.1.15,2013-02-28 17:15:00,
2013-02-28 12:20:00,38.5,25.4,29.70,SSE,167,4.0,5.0,59,0.00,,,0.00,Wunderground v.1.15,2013-02-28 17:20:00,
2013-02-28 12:30:00,38.4,25.7,29.69,North,349,4.0,4.0,60,0.00,,,0.00,Wunderground v.1.15,2013-02-28 17:30:00,
2013-02-28 12:35:00,38.5,26.2,29.69,NNW,340,4.0,6.0,61,0.00,,,0.00,Wunderground v.1.15,2013-02-28 17:35:00,
2013-02-28 12:40:00,38.6,25.9,29.69,SE,144,4.0,4.0,60,0.00,,,0.00,Wunderground v.1.15,2013-02-28 17:40:00,
2013-02-28 12:50:00,38.9,25.8,29.69,NW,305,3.0,3.0,59,0.00,,,0.00,Wunderground v.1.15,2013-02-28 17:50:00,
2013-02-28 13:00:00,39.1,26.4,29.69,NNW,346,3.0,4.0,60,0.00,,,0.00,Wunderground v.1.15,2013-02-28 18:00:00,
2013-02-28 13:10:00,39.2,26.1,29.68,WNW,288,4.0,4.0,59,0.00,,,0.00,Wunderground v.1.15,2013-02-28 18:10:00,
2013-02-28 13:15:00,39.2,26.1,29.68,West,260,4.0,5.0,59,0.00,,,0.00,Wunderground v.1.15,2013-02-28 18:15:00,
2013-02-28 13:20:00,39.1,26.4,29.68,NE,53,4.0,5.0,60,0.00,,,0.00,Wunderground v.1.15,2013-02-28 18:20:00,
2013-02-28 13:30:00,39.1,26.8,29.68,WNW,300,3.0,3.0,61,0.00,,,0.00,Wunderground v.1.15,2013-02-28 18:30:00,
2013-02-28 13:35:00,39.1,26.4,29.68,NNE,18,3.0,3.0,60,0.00,,,0.00,Wunderground v.1.15,2013-02-28 18:35:00,
2013-02-28 13:45:00,39.0,25.9,29.68,NNW,342,4.0,4.0,59,0.00,,,0.00,Wunderground v.1.15,2013-02-28 18:45:00,
2013-02-28 13:55:00,38.9,26.2,29.68,ESE,108,4.0,6.0,60,0.00,,,0.00,Wunderground v.1.15,2013-02-28 18:55:00,
2013-02-28 14:00:00,38.9,25.8,29.68,ENE,68,4.0,7.0,59,0.00,,,0.00,Wunderground v.1.15,2013-02-28 19:00:00,
2013-02-28 14:10:00,39.1,26.4,29.68,WSW,241,4.0,4.0,60,0.00,,,0.00,Wunderground v.1.15,2013-02-28 19:10:00,
2013-02-28 14:15:00,39.2,26.1,29.68,WNW,285,3.0,4.0,59,0.00,,,0.00,Wunderground v.1.15,2013-02-28 19:15:00,
2013-02-28 14:25:00,39.4,26.7,29.68,WSW,253,4.0,7.0,60,0.00,,,0.00,Wunderground v.1.15,2013-02-28 19:25:00,
2013-02-28 14:30:00,39.3,26.2,29.69,West,271,4.0,4.0,59,0.00,,,0.00,Wunderground v.1.15,2013-02-28 19:30:00,
2013-02-28 14:40:00,39.1,26.4,29.68,ENE,63,4.0,4.0,60,0.00,,,0.00,Wunderground v.1.15,2013-02-28 19:40:00,
2013-02-28 14:45:00,39.0,26.3,29.68,NNW,335,3.0,5.0,60,0.00,,,0.00,Wunderground v.1.15,2013-02-28 19:45:00,
2013-02-28 14:55:00,39.1,26.8,29.69,SSW,207,3.0,7.0,61,0.00,,,0.00,Wunderground v.1.15,2013-02-28 19:55:00,
2013-02-28 15:00:00,39.0,27.1,29.68,NE,34,3.0,3.0,62,0.00,,,0.00,Wunderground v.1.15,2013-02-28 20:00:00,
2013-02-28 15:10:00,38.9,27.4,29.69,NW,325,4.0,6.0,63,0.00,,,0.00,Wunderground v.1.15,2013-02-28 20:10:00,
2013-02-28 15:15:00,38.8,27.3,29.68,NNW,335,3.0,6.0,63,0.00,,,0.00,Wunderground v.1.15,2013-02-28 20:15:00,
2013-02-28 15:25:00,38.8,26.5,29.68,NW,311,3.0,4.0,61,0.00,,,0.00,Wunderground v.1.15,2013-02-28 20:25:00,
2013-02-28 15:35:00,38.9,26.6,29.68,NE,53,4.0,4.0,61,0.00,,,0.00,Wunderground v.1.15,2013-02-28 20:35:00,
2013-02-28 15:40:00,38.9,26.2,29.68,West,266,4.0,5.0,60,0.00,,,0.00,Wunderground v.1.15,2013-02-28 20:40:00,
2013-02-28 15:50:00,38.8,26.1,29.68,NNE,26,3.0,3.0,60,0.00,,,0.00,Wunderground v.1.15,2013-02-28 20:50:00,
2013-02-28 15:55:00,38.8,26.1,29.68,NE,42,3.0,3.0,60,0.00,,,0.00,Wunderground v.1.15,2013-02-28 20:55:00,
2013-02-28 16:00:00,38.9,26.2,29.68,WSW,245,2.0,4.0,60,0.00,,,0.00,Wunderground v.1.15,2013-02-28 21:00:00,
2013-02-28 16:10:00,38.9,25.8,29.68,NE,40,3.0,6.0,59,0.00,,,0.00,Wunderground v.1.15,2013-02-28 21:10:00,
2013-02-28 16:15:00,38.9,26.2,29.68,NNW,329,3.0,6.0,60,0.00,,,0.00,Wunderground v.1.15,2013-02-28 21:15:00,
2013-02-28 16:20:00,39.0,26.3,29.69,West,281,3.0,3.0,60,0.00,,,0.00,Wunderground v.1.15,2013-02-28 21:20:00,
2013-02-28 16:30:00,39.0,26.7,29.68,SSW,208,3.0,3.0,61,0.00,,,0.00,Wunderground v.1.15,2013-02-28 21:30:00,
2013-02-28 17:00:00,38.9,26.6,29.69,SSE,150,4.0,4.0,61,0.00,,,0.00,Wunderground v.1.15,2013-02-28 22:00:00,
2013-02-28 17:10:00,38.7,26.8,29.70,West,271,3.0,3.0,62,0.00,,,0.00,Wunderground v.1.15,2013-02-28 22:10:00,
2013-02-28 17:15:00,38.7,26.8,29.70,ENE,72,2.0,3.0,62,0.00,,,0.00,Wunderground v.1.15,2013-02-28 22:15:00,
2013-02-28 17:20:00,38.6,26.7,29.70,NNW,342,2.0,2.0,62,0.00,,,0.00,Wunderground v.1.15,2013-02-28 22:20:00,
2013-02-28 17:30:00,38.4,26.5,29.70,NNE,26,2.0,5.0,62,0.00,,,0.00,Wunderground v.1.15,2013-02-28 22:30:00,
2013-02-28 17:40:00,38.3,26.8,29.71,SSE,150,3.0,3.0,63,0.00,,,0.00,Wunderground v.1.15,2013-02-28 22:40:00,
2013-02-28 17:45:00,38.1,26.6,29.71,NW,308,2.0,3.0,63,0.00,,,0.00,Wunderground v.1.15,2013-02-28 22:45:00,
2013-02-28 17:55:00,38.0,26.9,29.72,NNW,334,1.0,2.0,64,0.00,,,0.00,Wunderground v.1.15,2013-02-28 22:55:00,
2013-02-28 18:00:00,38.0,26.9,29.72,NE,49,2.0,2.0,64,0.00,,,0.00,Wunderground v.1.15,2013-02-28 23:00:00,
2013-02-28 18:10:00,37.9,26.8,29.72,South,180,3.0,4.0,64,0.00,,,0.00,Wunderground v.1.15,2013-02-28 23:10:00,
2013-02-28 18:15:00,37.9,27.2,29.72,WNW,289,2.0,4.0,65,0.00,,,0.00,Wunderground v.1.15,2013-02-28 23:15:00,
2013-02-28 18:25:00,37.8,27.1,29.72,NE,51,2.0,5.0,65,0.00,,,0.00,Wunderground v.1.15,2013-02-28 23:25:00,
2013-02-28 18:30:00,37.7,27.4,29.72,East,93,2.0,2.0,66,0.00,,,0.00,Wunderground v.1.15,2013-02-28 23:30:00,
2013-02-28 18:40:00,37.5,27.5,29.73,SSW,207,2.0,2.0,67,0.00,,,0.00,Wunderground v.1.15,2013-02-28 23:40:00,
2013-02-28 18:45:00,37.5,27.5,29.73,North,356,2.0,2.0,67,0.00,,,0.00,Wunderground v.1.15,2013-02-28 23:45:00,
2013-02-28 18:55:00,37.4,27.8,29.73,WNW,293,2.0,3.0,68,0.00,,,0.00,Wunderground v.1.15,2013-02-28 23:55:00,
2013-02-28 19:00:00,37.4,27.8,29.74,NNE,32,3.0,3.0,68,0.00,,,0.00,Wunderground v.1.15,2013-03-01 00:00:00,
2013-02-28 19:10:00,37.3,27.7,29.74,NNE,32,2.0,3.0,68,0.00,,,0.00,Wunderground v.1.15,2013-03-01 00:10:00,
2013-02-28 19:20:00,37.4,28.2,29.74,SW,214,2.0,2.0,69,0.00,,,0.00,Wunderground v.1.15,2013-03-01 00:20:00,
2013-02-28 19:25:00,37.3,28.1,29.75,ENE,69,1.0,2.0,69,0.00,,,0.00,Wunderground v.1.15,2013-03-01 00:25:00,
2013-02-28 19:35:00,37.3,28.1,29.75,NNW,341,1.0,4.0,69,0.00,,,0.00,Wunderground v.1.15,2013-03-01 00:35:00,
2013-02-28 19:40:00,37.3,28.4,29.75,SW,226,2.0,4.0,70,0.00,,,0.00,Wunderground v.1.15,2013-03-01 00:40:00,
2013-02-28 19:50:00,37.3,28.4,29.75,SSW,197,2.0,3.0,70,0.00,,,0.00,Wunderground v.1.15,2013-03-01 00:50:00,
2013-02-28 20:00:00,37.3,28.4,29.75,NE,56,3.0,3.0,70,0.00,,,0.00,Wunderground v.1.15,2013-03-01 01:00:00,
2013-02-28 20:10:00,37.3,28.8,29.75,ESE,117,2.0,2.0,71,0.00,,,0.00,Wunderground v.1.15,2013-03-01 01:10:00,
2013-02-28 20:15:00,37.3,28.8,29.76,NE,34,2.0,2.0,71,0.00,,,0.00,Wunderground v.1.15,2013-03-01 01:15:00,
2013-02-28 20:25:00,37.3,28.8,29.76,WNW,286,2.0,3.0,71,0.00,,,0.00,Wunderground v.1.15,2013-03-01 01:25:00,
2013-02-28 20:30:00,37.4,28.9,29.76,NW,318,2.0,3.0,71,0.00,,,0.00,Wunderground v.1.15,2013-03-01 01:30:00,
2013-02-28 20:40:00,37.3,29.1,29.76,SSW,212,2.0,2.0,72,0.00,,,0.00,Wunderground v.1.15,2013-03-01 01:40:00,
2013-02-28 20:50:00,37.3,29.1,29.77,NW,307,1.0,1.0,72,0.00,,,0.00,Wunderground v.1.15,2013-03-01 01:50:00,
2013-02-28 20:55:00,37.3,29.1,29.77,NE,38,2.0,2.0,72,0.00,,,0.00,Wunderground v.1.15,2013-03-01 01:55:00,
2013-02-28 21:00:00,37.3,29.1,29.77,WNW,288,2.0,2.0,72,0.00,,,0.00,Wunderground v.1.15,2013-03-01 02:00:00,
2013-02-28 21:10:00,37.3,29.1,29.77,NNE,15,1.0,2.0,72,0.00,,,0.00,Wunderground v.1.15,2013-03-01 02:10:00,
2013-02-28 21:20:00,37.3,29.1,29.77,SSE,167,1.0,1.0,72,0.00,,,0.00,Wunderground v.1.15,2013-03-01 02:20:00,
2013-02-28 21:25:00,37.3,29.1,29.77,NE,50,1.0,2.0,72,0.00,,,0.00,Wunderground v.1.15,2013-03-01 02:25:00,
2013-02-28 21:35:00,37.3,29.1,29.77,ESE,104,1.0,2.0,72,0.00,,,0.00,Wunderground v.1.15,2013-03-01 02:35:00,
2013-02-28 21:40:00,37.3,29.4,29.78,SE,144,1.0,1.0,73,0.00,,,0.00,Wunderground v.1.15,2013-03-01 02:40:00,
2013-02-28 21:50:00,37.2,29.3,29.78,WNW,302,1.0,1.0,73,0.00,,,0.00,Wunderground v.1.15,2013-03-01 02:50:00,
2013-02-28 22:00:00,37.1,29.2,29.78,WNW,298,0.0,1.0,73,0.00,,,0.00,Wunderground v.1.15,2013-03-01 03:00:00,
2013-02-28 22:10:00,37.1,29.2,29.77,North,7,1.0,1.0,73,0.00,,,0.00,Wunderground v.1.15,2013-03-01 03:10:00,
2013-02-28 22:15:00,37.1,29.2,29.77,WNW,293,1.0,1.0,73,0.00,,,0.00,Wunderground v.1.15,2013-03-01 03:15:00,
2013-02-28 22:20:00,37.1,29.2,29.77,ENE,67,1.0,1.0,73,0.00,,,0.00,Wunderground v.1.15,2013-03-01 03:20:00,
2013-02-28 22:30:00,37.0,28.8,29.77,WNW,286,0.0,0.0,72,0.00,,,0.00,Wunderground v.1.15,2013-03-01 03:30:00,
2013-02-28 22:35:00,37.1,28.9,29.77,WNW,286,0.0,0.0,72,0.00,,,0.00,Wunderground v.1.15,2013-03-01 03:35:00,
2013-02-28 22:45:00,37.1,28.6,29.77,ENE,58,0.0,1.0,71,0.00,,,0.00,Wunderground v.1.15,2013-03-01 03:45:00,
2013-02-28 22:50:00,37.1,28.6,29.77,NE,40,0.0,3.0,71,0.00,,,0.00,Wunderground v.1.15,2013-03-01 03:50:00,
2013-02-28 22:55:00,37.2,28.7,29.77,NE,38,1.0,3.0,71,0.00,,,0.00,Wunderground v.1.15,2013-03-01 03:55:00,
2013-02-28 23:00:00,37.2,28.3,29.77,North,360,1.0,1.0,70,0.00,,,0.00,Wunderground v.1.15,2013-03-01 04:00:00,
2013-02-28 23:05:00,37.2,28.3,29.77,NE,45,1.0,-999.0,70,0.00,,,0.00,Wunderground v.1.15,2013-03-01 04:05:00,
2013-02-28 23:10:00,37.2,28.3,29.77,NE,45,1.0,-999.0,70,0.00,,,0.00,Wunderground v.1.15,2013-03-01 04:10:00,
2013-02-28 23:15:00,37.2,28.7,29.78,NE,45,1.0,-999.0,71,0.00,,,0.00,Wunderground v.1.15,2013-03-01 04:15:00,
2013-02-28 23:20:00,37.2,28.7,29.78,NE,45,1.0,-999.0,71,0.00,,,0.00,Wunderground v.1.15,2013-03-01 04:20:00,
2013-02-28 23:25:00,37.2,28.7,29.78,NE,45,1.0,-999.0,71,0.00,,,0.00,Wunderground v.1.15,2013-03-01 04:25:00,
2013-02-28 23:30:00,37.2,28.7,29.78,NE,45,1.0,-999.0,71,0.00,,,0.00,Wunderground v.1.15,2013-03-01 04:30:00,
2013-02-28 23:35:00,37.2,28.7,29.78,NE,45,1.0,-999.0,71,0.00,,,0.00,Wunderground v.1.15,2013-03-01 04:35:00,
2013-02-28 23:40:00,37.2,28.7,29.78,NE,45,1.0,-999.0,71,0.00,,,0.00,Wunderground v.1.15,2013-03-01 04:40:00,
2013-02-28 23:45:00,36.8,28.6,29.78,WNW,293,1.0,-999.0,72,0.00,,,0.00,Wunderground v.1.15,2013-03-01 04:45:00,
2013-02-28 23:50:00,36.8,28.6,29.78,WNW,293,1.0,-999.0,72,0.00,,,0.00,Wunderground v.1.15,2013-03-01 04:50:00,
2013-02-28 23:55:00,36.8,28.6,29.78,WNW,293,1.0,-999.0,72,0.00,,,0.00,Wunderground v.1.15,2013-03-01 04:55:00,